Time,TemperatureF,DewpointF,PressureIn,WindDirection,WindDirectionDegrees,WindSpeedMPH,WindSpeedGustMPH,Humidity,HourlyPrecipIn,Conditions,Clouds,dailyrainin,SoftwareType,DateUTC
2013-01-04 00:03:00,50.0,-99.9,30.29,North,358,6.0,7.0,-999,-99.99,,,-99.99,,2013-01-04 05:03:00,
2013-01-04 00:12:00,50.0,-99.9,30.29,North,356,6.0,8.0,-999,-99.99,,,-99.99,,2013-01-04 05:12:00,
2013-01-04 00:22:00,50.0,-99.9,30.28,North,360,6.0,11.0,-999,-99.99,,,-99.99,,2013-01-04 05:22:00,
2013-01-04 00:33:00,50.0,-99.9,30.29,North,358,11.0,13.0,-999,-99.99,,,-99.99,,2013-01-04 05:33:00,
2013-01-04 00:43:00,50.0,-99.9,30.28,North,7,11.0,15.0,-999,-99.99,,,-99.99,,2013-01-04 05:43:00,
2013-01-04 00:53:00,50.0,-99.9,30.29,North,355,10.0,14.0,-999,-99.99,,,-99.99,,2013-01-04 05:53:00,
2013-01-04 01:02:00,50.0,-99.9,30.29,North,354,9.0,12.0,-999,-99.99,,,-99.99,,2013-01-04 06:02:00,
2013-01-04 01:12:00,50.0,-99.9,30.28,North,351,7.0,9.0,-999,-99.99,,,-99.99,,2013-01-04 06:12:00,
2013-01-04 01:22:00,50.0,-99.9,30.29,North,357,8.0,11.0,-999,-99.99,,,-99.99,,2013-01-04 06:22:00,
2013-01-04 01:33:00,50.0,-99.9,30.29,North,355,9.0,11.0,-999,-99.99,,,-99.99,,2013-01-04 06:33:00,
2013-01-04 01:43:00,50.0,-99.9,30.29,NNW,338,7.0,8.0,-999,-99.99,,,-99.99,,2013-01-04 06:43:00,
2013-01-04 01:53:00,50.0,-99.9,30.29,NNW,343,8.0,10.0,-999,-99.99,,,-99.99,,2013-01-04 06:53:00,
2013-01-04 02:02:00,50.0,-99.9,30.29,NNW,344,7.0,10.0,-999,-99.99,,,-99.99,,2013-01-04 07:02:00,
2013-01-04 02:12:00,50.0,-99.9,30.29,NNW,345,8.0,10.0,-999,-99.99,,,-99.99,,2013-01-04 07:12:00,
2013-01-04 02:22:00,50.0,-99.9,30.29,NNW,347,6.0,10.0,-999,-99.99,,,-99.99,,2013-01-04 07:22:00,
2013-01-04 02:32:00,50.0,-99.9,30.29,North,350,8.0,11.0,-999,-99.99,,,-99.99,,2013-01-04 07:32:00,
2013-01-04 02:43:00,50.0,-99.9,30.29,NNW,338,8.0,11.0,-999,-99.99,,,-99.99,,2013-01-04 07:43:00,
2013-01-04 02:52:00,50.0,-99.9,30.29,NNW,342,7.0,11.0,-999,-99.99,,,-99.99,,2013-01-04 07:52:00,
2013-01-04 03:03:00,49.0,-99.9,30.29,NNW,348,11.0,15.0,-999,-99.99,,,-99.99,,2013-01-04 08:03:00,
2013-01-04 03:12:00,49.0,-99.9,30.29,North,350,9.0,10.0,-999,-99.99,,,-99.99,,2013-01-04 08:12:00,
2013-01-04 03:23:00,49.0,-99.9,30.29,North,356,7.0,10.0,-999,-99.99,,,-99.99,,2013-01-04 08:23:00,
2013-01-04 03:33:00,49.0,-99.9,30.30,North,349,7.0,9.0,-999,-99.99,,,-99.99,,2013-01-04 08:33:00,
2013-01-04 03:43:00,49.0,-99.9,30.30,North,353,9.0,12.0,-999,-99.99,,,-99.99,,2013-01-04 08:43:00,
2013-01-04 03:53:00,49.0,-99.9,30.30,North,3,6.0,10.0,-999,-99.99,,,-99.99,,2013-01-04 08:53:00,
2013-01-04 04:02:00,49.0,-99.9,30.30,NNW,347,8.0,11.0,-999,-99.99,,,-99.99,,2013-01-04 09:02:00,